CheckWX is a tool to help pilots better visualize weather data.  It is not intended as a substitute for an official pre-flight weather briefing.

23:13:38 UTC

KBGM TAF
Greater Binghamton/Edwin A Link field
Binghamton, New York, USA
KBGM 102326Z 1100/1124 10006KT 5SM -SHRA BR OVC035 FM110200 09005KT 3SM SHRA OVC018 FM110500 VRB03KT 2SM BR BKN005 TEMPO 1108/1112 1SM BR OVC004 FM111300 VRB03KT P6SM SCT019 FM112000 19009KT P6SM -SHRA BKN035

Jul-11@
00:00 UTC

Jul-11 @ 00:00 UTC

Jul-11@
02:00 UTC

Jul-11 @ 02:00 UTC

TAF KBGM 102326Z 1100/1124 10006KT 5SM -SHRA BR OVC035

Expired

Wind
  • 100° at 6 KTS
Conditions
Light Showers, Rain, Mist
Cloud Levels
  • Overcast at 3,500' AGL

Jul-11@
02:00 UTC

Jul-11 @ 02:00 UTC

Jul-11@
05:00 UTC

Jul-11 @ 05:00 UTC

FM110200 09005KT 3SM SHRA OVC018

Expired

Wind
  • 090° at 5 KTS
Conditions
Showers, Rain
Cloud Levels
  • Overcast at 1,800' AGL

Jul-11@
05:00 UTC

Jul-11 @ 05:00 UTC

Jul-11@
13:00 UTC

Jul-11 @ 13:00 UTC

FM110500 VRB03KT 2SM BR BKN005

Expired

Wind
  • Variable at 3 KTS
Conditions
Mist
Cloud Levels
  • Broken at 500' AGL

Jul-11@
08:00 UTC

Jul-11 @ 08:00 UTC

Jul-11@
12:00 UTC

Jul-11 @ 12:00 UTC

TEMPO 1108/1112 1SM BR OVC004

Expired

Conditions
Mist
Cloud Levels
  • Overcast at 400' AGL

Jul-11@
13:00 UTC

Jul-11 @ 13:00 UTC

Jul-11@
20:00 UTC

Jul-11 @ 20:00 UTC

FM111300 VRB03KT P6SM SCT019

Expired

Wind
  • Variable at 3 KTS
Cloud Levels
  • Scattered at 1,900' AGL

Jul-11@
20:00 UTC

Jul-11 @ 20:00 UTC

Jul-12@
00:00 UTC

Jul-12 @ 00:00 UTC

FM112000 19009KT P6SM -SHRA BKN035

From

From Standard forecast or significant change

Wind
  • 190° at 9 KTS
Conditions
Light Showers, Rain
Cloud Levels
  • Broken at 3,500' AGL